Main page
Satellite images 10-day forecastsClimateMarine weather Cyclones Lightning AirportsFAQ Newsletter About
Weather : Europe Africa North America South America Asia Australia-Oceania Others
Languages Contact

Warsaw, Poland

Warsaw Chopin Airport

latitude: 52-10N, longitude: 020-58E, elevation: 106 m


METAR: EPWA 041730Z 16006KT CAVOK 29/13 Q1015 NOSIG
TAF: EPWA 041730Z 0418/0518 13008KT CAVOK BECMG 0512/0515 28010KT

Time: 19:51 (17:51 UTC)

Current weather observation

The report was made 21 minutes ago, at 17:30 UTC
Wind 6 kt from the South/Southeast
Temperature 29°C
Humidity 37%
Pressure 1015 hPa
Visibility 10 km or more
no clouds below 1500 m and no cumulonimbus

Change units

Forecast

The report was made 21 minutes ago, at 17:30 UTC
Forecast valid from 04 at 18 UTC to 05 at 18 UTC
Wind 8 kt from the Southeast
Visibility 10 km or more
no clouds below 1500 m and no cumulonimbus
Becoming
from 05 at 12 UTC to 05 at 15 UTC
Wind 10 kt from the West
The information on this site is subject to a disclaimer
Weather : Europe Africa North America South America Asia Australia-Oceania Others
Satellite images 10-day forecastsClimateMarine weather Cyclones Lightning AirportsFAQ Languages Contact Newsletter About